Time;durP1;ratioP1;P1;durP2;ratioP2;P2;SDS_P1;SDS_P2;PMS_P1;PMS_P2;Temp;Humidity;BMP_temperature;BMP_pressure;BME280_temperature;BME280_humidity;BME280_pressure;Samples;Min_cycle;Max_cycle;Signal;HPM_P1;HPM_P2
2021/01/10 00:00:02;;;;;;;175.38;44.90;;;;;;;0.65;93.72;101320.69;1653998;84;27480;-76
2021/01/10 00:02:28;;;;;;;149.42;40.17;;;;;;;0.62;93.71;101317.59;1657890;84;25918;-77
2021/01/10 00:04:54;;;;;;;149.68;43.78;;;;;;;0.65;93.70;101322.00;1643988;84;25821;-77
2021/01/10 00:07:25;;;;;;;167.10;43.23;;;;;;;0.58;93.66;101318.44;1659871;84;26556;-77
2021/01/10 00:09:55;;;;;;;181.95;47.13;;;;;;;0.58;93.67;101321.51;1654067;84;25824;-77
2021/01/10 00:12:25;;;;;;;178.60;45.78;;;;;;;0.58;93.70;101315.80;1661633;84;27577;-76
2021/01/10 00:14:52;;;;;;;156.05;41.35;;;;;;;0.61;93.73;101315.82;1646734;84;26986;-76
2021/01/10 00:17:19;;;;;;;174.05;45.50;;;;;;;0.63;93.74;101318.47;1667586;84;25956;-76
2021/01/10 00:19:48;;;;;;;163.20;43.95;;;;;;;0.65;93.75;101324.20;1666083;84;25783;-76
2021/01/10 00:22:17;;;;;;;138.77;41.25;;;;;;;0.67;93.73;101322.90;1657031;84;26052;-75
2021/01/10 00:24:43;;;;;;;156.67;44.40;;;;;;;0.65;93.72;101321.56;1664188;84;27422;-75
2021/01/10 00:27:14;;;;;;;139.15;41.58;;;;;;;0.62;93.70;101328.14;1644088;84;25973;-76
2021/01/10 00:29:45;;;;;;;154.87;41.73;;;;;;;0.57;93.68;101329.86;1682919;82;25919;-76
2021/01/10 00:32:11;;;;;;;136.62;38.85;;;;;;;0.56;93.69;101325.45;1699841;82;25968;-77
2021/01/10 00:34:37;;;;;;;113.57;39.00;;;;;;;0.57;93.71;101329.86;1700787;82;26313;-77
2021/01/10 00:37:14;;;;;;;151.05;42.48;;;;;;;0.57;93.74;101330.30;1700570;82;28011;-77
2021/01/10 00:39:40;;;;;;;129.78;38.08;;;;;;;0.51;93.71;101334.20;1697768;82;25788;-77
2021/01/10 00:42:08;;;;;;;147.22;42.55;;;;;;;0.52;93.74;101329.37;1699380;82;25793;-77
2021/01/10 00:44:35;;;;;;;123.07;35.63;;;;;;;0.49;93.73;101338.14;1704515;82;25907;-76
2021/01/10 00:47:02;;;;;;;154.75;41.13;;;;;;;0.50;93.76;101334.63;1690942;82;25887;-75
2021/01/10 00:49:28;;;;;;;136.68;41.80;;;;;;;0.53;93.79;101336.41;1712767;82;25766;-76
2021/01/10 00:51:53;;;;;;;150.95;42.15;;;;;;;0.54;93.80;101334.22;1701706;82;34176;-77
2021/01/10 00:54:20;;;;;;;160.78;39.27;;;;;;;0.56;93.83;101341.72;1701221;82;30595;-76
2021/01/10 00:56:46;;;;;;;149.68;40.52;;;;;;;0.57;93.84;101336.88;1697146;82;25924;-77
2021/01/10 00:59:13;;;;;;;145.62;40.50;;;;;;;0.58;93.84;101339.97;1708031;82;25790;-82
2021/01/10 01:01:43;;;;;;;148.78;41.48;;;;;;;0.59;93.83;101339.98;1694668;82;27390;-75
2021/01/10 01:04:10;;;;;;;142.53;39.67;;;;;;;0.64;93.86;101350.58;1693104;82;25983;-75
2021/01/10 01:06:37;;;;;;;156.87;40.33;;;;;;;0.63;93.87;101353.64;1706781;82;25810;-77
2021/01/10 01:09:05;;;;;;;181.97;43.42;;;;;;;0.66;93.89;101351.47;1697485;82;25798;-74
2021/01/10 01:11:34;;;;;;;167.07;39.23;;;;;;;0.64;93.88;101349.26;1691320;82;25757;-75
2021/01/10 01:14:01;;;;;;;142.47;39.15;;;;;;;0.66;93.88;101350.16;1694147;82;27556;-76
2021/01/10 01:16:26;;;;;;;159.00;38.05;;;;;;;0.72;93.94;101343.61;1699318;82;26101;-76
2021/01/10 01:18:52;;;;;;;164.03;40.33;;;;;;;0.72;93.92;101346.25;1698451;82;25881;-75
2021/01/10 01:21:20;;;;;;;169.30;41.45;;;;;;;0.69;93.87;101341.38;1693403;82;26419;-75
2021/01/10 01:23:50;;;;;;;180.15;46.63;;;;;;;0.69;93.86;101342.27;1697220;82;25904;-75
2021/01/10 01:26:21;;;;;;;177.85;44.75;;;;;;;0.67;93.84;101346.64;1696320;82;28298;-75
2021/01/10 01:28:48;;;;;;;166.85;40.95;;;;;;;0.68;93.85;101344.45;1696441;82;25846;-77
2021/01/10 01:31:17;;;;;;;144.65;36.98;;;;;;;0.74;93.91;101345.82;1711283;82;26604;-77
2021/01/10 01:33:44;;;;;;;193.47;46.75;;;;;;;0.76;93.91;101352.43;1690721;82;26625;-75
2021/01/10 01:36:12;;;;;;;178.80;43.30;;;;;;;0.73;93.89;101351.09;1707740;82;25801;-75
2021/01/10 01:38:40;;;;;;;196.50;45.75;;;;;;;0.66;93.84;101343.55;1701488;82;28412;-77
2021/01/10 01:41:09;;;;;;;182.93;45.25;;;;;;;0.59;93.83;101347.90;1715132;82;25856;-75
2021/01/10 01:43:36;;;;;;;208.93;48.23;;;;;;;0.61;93.86;101346.59;1689221;82;25817;-76
2021/01/10 01:46:08;;;;;;;227.60;50.05;;;;;;;0.61;93.88;101349.23;1703125;82;25924;-76
2021/01/10 01:48:37;;;;;;;210.60;50.98;;;;;;;0.61;93.88;101353.19;1703814;82;25821;-76
2021/01/10 01:51:04;;;;;;;279.65;54.85;;;;;;;0.59;93.89;101354.93;1700203;82;27578;-77
2021/01/10 01:53:30;;;;;;;188.42;44.03;;;;;;;0.58;93.92;101355.80;1697346;82;26473;-76
2021/01/10 01:55:58;;;;;;;180.42;44.45;;;;;;;0.59;93.93;101356.25;1696390;82;25829;-76
2021/01/10 01:58:27;;;;;;;166.65;39.23;;;;;;;0.56;93.90;101354.90;1709809;82;26887;-76
2021/01/10 02:00:54;;;;;;;176.85;40.00;;;;;;;0.57;93.92;101356.67;1709468;82;25849;-76
2021/01/10 02:03:31;;;;;;;194.95;42.00;;;;;;;0.62;93.97;101352.31;1697588;82;27406;-76
2021/01/10 02:06:02;;;;;;;170.95;42.03;;;;;;;0.60;93.95;101359.33;1699281;82;25769;-76
2021/01/10 02:08:31;;;;;;;141.47;38.67;;;;;;;0.61;93.99;101354.07;1692468;82;25891;-76
2021/01/10 02:11:00;;;;;;;173.40;40.40;;;;;;;0.65;94.03;101355.86;1694352;82;25749;-76
2021/01/10 02:13:30;;;;;;;171.85;39.65;;;;;;;0.72;94.08;101356.80;1707365;82;25795;-75
2021/01/10 02:15:56;;;;;;;162.27;40.28;;;;;;;0.72;94.07;101351.95;1703417;82;27551;-75
2021/01/10 02:18:22;;;;;;;196.70;45.65;;;;;;;0.78;94.12;101359.92;1704770;82;26327;-75
2021/01/10 02:20:50;;;;;;;170.55;37.55;;;;;;;0.75;94.06;101361.22;1713563;82;26085;-75
2021/01/10 02:23:22;;;;;;;172.75;38.00;;;;;;;0.71;94.04;101360.30;1702217;82;25769;-76
2021/01/10 02:25:49;;;;;;;125.42;33.92;;;;;;;0.70;94.05;101355.90;1674958;83;26337;-75
2021/01/10 02:28:24;;;;;;;141.57;34.43;;;;;;;0.75;94.04;101363.86;1707388;82;27167;-77
2021/01/10 02:30:52;;;;;;;102.97;29.42;;;;;;;0.80;94.08;101366.98;1685356;82;25996;-76
2021/01/10 02:33:55;;;;;;;89.10;25.75;;;;;;;0.82;94.10;101368.31;1688154;82;25862;-77
2021/01/10 02:37:02;;;;;;;107.70;29.72;;;;;;;0.78;94.05;101365.20;1684563;82;25846;-77
2021/01/10 02:39:33;;;;;;;125.55;33.53;;;;;;;0.76;94.01;101367.83;1682281;82;26282;-76
2021/01/10 02:42:10;;;;;;;99.15;27.07;;;;;;;0.81;94.07;101364.78;1688836;82;25913;-77
2021/01/10 02:44:41;;;;;;;72.80;23.60;;;;;;;0.82;94.06;101369.19;1695605;82;25861;-76
2021/01/10 02:47:07;;;;;;;76.80;22.37;;;;;;;0.82;94.06;101364.35;1691749;82;26477;-76
2021/01/10 02:49:34;;;;;;;104.58;28.52;;;;;;;0.84;94.08;101374.05;1685237;82;25882;-76
2021/01/10 02:52:00;;;;;;;118.33;33.33;;;;;;;0.85;94.10;101364.38;1692189;82;25824;-76
2021/01/10 02:54:26;;;;;;;101.55;25.92;;;;;;;0.89;94.12;101365.73;1688341;82;28384;-76
2021/01/10 02:57:15;;;;;;;67.03;23.32;;;;;;;0.94;94.14;101363.13;1671628;82;26022;-76
2021/01/10 02:59:42;;;;;;;55.83;19.62;;;;;;;0.94;94.11;101372.36;1686194;82;25799;-76
2021/01/10 03:02:10;;;;;;;46.13;17.43;;;;;;;0.95;94.13;101367.53;1694250;82;25852;-76
2021/01/10 03:04:37;;;;;;;52.95;20.72;;;;;;;0.93;94.09;101366.64;1692291;82;25883;-76
2021/01/10 03:07:05;;;;;;;42.43;16.42;;;;;;;0.91;94.08;101366.63;1675348;82;28260;-76
2021/01/10 03:09:31;;;;;;;46.10;18.48;;;;;;;0.89;94.04;101368.80;1687053;82;25914;-75
2021/01/10 03:12:25;;;;;;;41.65;17.77;;;;;;;0.88;94.08;101369.23;1697559;82;25849;-76
2021/01/10 03:14:59;;;;;;;46.02;18.50;;;;;;;0.87;94.04;101365.27;1690631;82;25926;-75
2021/01/10 03:17:35;;;;;;;44.20;19.05;;;;;;;0.81;94.02;101362.15;1689918;82;25824;-76
2021/01/10 03:20:05;;;;;;;42.73;16.10;;;;;;;0.82;94.05;101364.35;1690890;82;27452;-77
2021/01/10 03:22:30;;;;;;;51.20;18.07;;;;;;;0.77;94.02;101363.43;1695729;82;25909;-76
2021/01/10 03:24:56;;;;;;;42.43;16.42;;;;;;;0.83;94.06;101358.20;1679807;82;25809;-76
2021/01/10 03:27:22;;;;;;;39.20;16.27;;;;;;;0.90;94.15;101367.50;1691098;82;25869;-79
2021/01/10 03:29:47;;;;;;;47.10;18.70;;;;;;;0.93;94.15;101362.67;1695666;82;25802;-75
2021/01/10 03:32:13;;;;;;;46.88;19.17;;;;;;;0.91;94.14;101356.07;1697743;82;27407;-75
2021/01/10 03:34:39;;;;;;;52.33;19.37;;;;;;;0.89;94.09;101363.09;1694539;82;25923;-75
2021/01/10 03:37:05;;;;;;;43.50;16.97;;;;;;;0.88;94.08;101364.40;1700181;82;30491;-75
2021/01/10 03:39:31;;;;;;;40.20;16.67;;;;;;;0.89;94.09;101366.16;1708360;82;26434;-75
2021/01/10 03:41:58;;;;;;;40.40;16.40;;;;;;;0.90;94.11;101361.34;1704159;82;25885;-75
2021/01/10 03:44:24;;;;;;;51.10;18.15;;;;;;;0.86;94.07;101366.14;1715174;82;28331;-75
2021/01/10 03:46:54;;;;;;;58.95;20.75;;;;;;;0.85;94.06;101365.26;1691129;82;26155;-75
2021/01/10 03:49:19;;;;;;;48.70;18.70;;;;;;;0.81;94.05;101366.55;1705509;82;25843;-75
2021/01/10 03:51:45;;;;;;;52.25;17.45;;;;;;;0.82;94.08;101370.52;1702999;82;25988;-76
2021/01/10 03:54:11;;;;;;;43.95;16.77;;;;;;;0.81;94.08;101367.86;1694498;82;25926;-75
2021/01/10 03:56:37;;;;;;;55.35;21.25;;;;;;;0.79;94.09;101365.20;1706900;82;27411;-76
2021/01/10 03:59:02;;;;;;;41.13;17.40;;;;;;;0.84;94.12;101368.77;1714801;82;32916;-76
2021/01/10 04:01:28;;;;;;;58.60;20.85;;;;;;;0.85;94.14;101369.22;1702043;82;31320;-76
2021/01/10 04:03:54;;;;;;;48.48;17.75;;;;;;;0.85;94.13;101365.70;1698760;82;25945;-76
2021/01/10 04:06:20;;;;;;;57.62;22.13;;;;;;;0.89;94.16;101370.13;1703298;82;25865;-77
2021/01/10 04:08:47;;;;;;;54.00;18.95;;;;;;;0.89;94.16;101361.77;1705415;82;28614;-76
2021/01/10 04:11:14;;;;;;;55.00;20.48;;;;;;;0.88;94.14;101361.76;1701829;82;25833;-76
2021/01/10 04:13:40;;;;;;;60.90;21.48;;;;;;;0.86;94.12;101363.06;1703908;82;26462;-75
2021/01/10 04:16:06;;;;;;;51.02;19.12;;;;;;;0.86;94.13;101364.82;1706229;82;25772;-75
2021/01/10 04:18:33;;;;;;;57.90;18.60;;;;;;;0.81;94.08;101362.15;1713356;82;25884;-77
2021/01/10 04:21:03;;;;;;;57.33;20.25;;;;;;;0.80;94.09;101363.02;1711702;82;27389;-75
2021/01/10 04:23:29;;;;;;;60.28;22.50;;;;;;;0.82;94.11;101366.99;1700818;82;25861;-77
2021/01/10 04:25:55;;;;;;;54.13;18.25;;;;;;;0.79;94.07;101370.48;1704980;82;30526;-75
2021/01/10 04:28:21;;;;;;;42.08;16.75;;;;;;;0.78;94.07;101367.84;1705545;82;26423;-75
2021/01/10 04:30:47;;;;;;;44.80;16.90;;;;;;;0.80;94.10;101370.94;1688718;82;25761;-75
2021/01/10 04:33:13;;;;;;;44.23;18.35;;;;;;;0.82;94.13;101370.52;1692103;82;27213;-75
2021/01/10 04:35:38;;;;;;;48.65;19.62;;;;;;;0.86;94.16;101377.58;1692526;82;32979;-75
2021/01/10 04:38:04;;;;;;;45.65;17.90;;;;;;;0.91;94.21;101377.19;1687821;82;31006;-75
2021/01/10 04:40:30;;;;;;;39.48;15.28;;;;;;;0.90;94.18;101382.45;1701219;82;25778;-74
2021/01/10 04:42:57;;;;;;;36.85;13.45;;;;;;;0.83;94.12;101380.20;1680117;82;25911;-74
2021/01/10 04:45:23;;;;;;;40.73;16.62;;;;;;;0.75;94.08;101383.21;1695802;82;28132;-74
2021/01/10 04:47:52;;;;;;;34.33;13.75;;;;;;;0.72;94.09;101376.59;1695487;82;25852;-75
2021/01/10 04:50:18;;;;;;;41.40;13.70;;;;;;;0.78;94.17;101376.64;1688374;82;27657;-75
2021/01/10 04:52:45;;;;;;;45.88;15.23;;;;;;;0.86;94.23;101374.94;1695914;82;26116;-75
2021/01/10 04:55:13;;;;;;;40.80;15.58;;;;;;;0.91;94.28;101376.30;1672619;82;25742;-75
2021/01/10 04:57:41;;;;;;;37.50;13.13;;;;;;;0.96;94.26;101377.22;1688383;82;27638;-75
2021/01/10 05:00:12;;;;;;;37.67;14.47;;;;;;;0.93;94.24;101375.44;1701386;82;25807;-75
2021/01/10 05:02:47;;;;;;;44.83;16.45;;;;;;;0.98;94.25;101379.44;1686176;82;26445;-75
2021/01/10 05:05:14;;;;;;;43.00;14.95;;;;;;;0.83;94.12;101376.23;1670136;82;25830;-75
2021/01/10 05:07:43;;;;;;;36.35;15.08;;;;;;;0.79;94.09;101382.36;1697901;82;25893;-75
2021/01/10 05:10:11;;;;;;;45.03;16.80;;;;;;;0.78;94.10;101381.91;1690901;82;27241;-75
2021/01/10 05:12:36;;;;;;;50.78;15.60;;;;;;;0.87;94.18;101380.67;1689853;82;26450;-77
2021/01/10 05:15:04;;;;;;;36.83;15.95;;;;;;;0.91;94.22;101376.30;1686639;82;30453;-75
2021/01/10 05:17:32;;;;;;;45.08;17.62;;;;;;;0.89;94.19;101382.00;1693748;82;25892;-75
2021/01/10 05:19:58;;;;;;;40.85;16.55;;;;;;;0.82;94.17;101381.07;1690947;82;25815;-75
2021/01/10 05:22:24;;;;;;;57.48;20.62;;;;;;;0.76;94.11;101386.73;1682517;82;27230;-75
2021/01/10 05:24:50;;;;;;;45.80;16.55;;;;;;;0.77;94.12;101384.54;1684186;83;26607;-75
2021/01/10 05:27:15;;;;;;;40.52;17.35;;;;;;;0.78;94.15;101381.91;1687854;82;30616;-75
2021/01/10 05:29:46;;;;;;;42.25;16.02;;;;;;;0.76;94.11;101389.37;1689961;82;25913;-75
2021/01/10 05:32:12;;;;;;;35.67;15.47;;;;;;;0.74;94.11;101388.03;1692535;83;26013;-74
2021/01/10 05:34:38;;;;;;;39.08;15.83;;;;;;;0.71;94.11;101388.02;1675090;83;27392;-75
2021/01/10 05:37:14;;;;;;;38.63;15.08;;;;;;;0.71;94.13;101385.80;1684219;83;33069;-75
2021/01/10 05:39:45;;;;;;;37.95;15.75;;;;;;;0.65;94.08;101395.87;1709067;82;25820;-75
2021/01/10 05:42:13;;;;;;;39.38;14.95;;;;;;;0.63;94.12;101398.50;1699265;82;26198;-75
2021/01/10 05:44:47;;;;;;;40.98;15.55;;;;;;;0.70;94.22;101392.84;1706465;82;25828;-75
2021/01/10 05:47:15;;;;;;;31.73;13.38;;;;;;;0.73;94.24;101392.86;1706150;82;27581;-75
2021/01/10 05:49:51;;;;;;;38.53;14.80;;;;;;;0.71;94.21;101394.61;1700159;82;25740;-75
2021/01/10 05:52:19;;;;;;;32.67;13.35;;;;;;;0.71;94.20;101389.77;1708297;82;25824;-75
2021/01/10 05:54:47;;;;;;;34.78;14.13;;;;;;;0.72;94.20;101391.09;1698902;82;26561;-75
2021/01/10 05:57:28;;;;;;;34.50;14.00;;;;;;;0.75;94.25;101388.92;1687371;82;25992;-75
2021/01/10 05:59:56;;;;;;;38.05;15.40;;;;;;;0.80;94.29;101400.40;1692839;82;28249;-75
2021/01/10 06:02:30;;;;;;;34.85;14.20;;;;;;;0.85;94.33;101407.48;1704655;82;26773;-75
2021/01/10 06:05:20;;;;;;;33.50;13.45;;;;;;;0.91;94.36;101405.33;1706899;82;25985;-75
2021/01/10 06:07:48;;;;;;;37.78;14.70;;;;;;;0.95;94.36;101405.37;1698872;82;25872;-75
2021/01/10 06:10:27;;;;;;;38.92;13.68;;;;;;;0.87;94.28;101400.46;1697720;82;25809;-75
2021/01/10 06:13:05;;;;;;;41.70;15.98;;;;;;;0.85;94.24;101406.16;1694661;82;27376;-75
2021/01/10 06:15:34;;;;;;;40.30;16.75;;;;;;;0.78;94.17;101412.27;1715046;82;25908;-75
2021/01/10 06:18:04;;;;;;;43.28;16.70;;;;;;;0.80;94.24;101406.56;1698045;82;25794;-75
2021/01/10 06:20:34;;;;;;;47.10;16.27;;;;;;;0.75;94.19;101415.30;1708773;82;25844;-75
2021/01/10 06:23:03;;;;;;;37.75;15.93;;;;;;;0.76;94.19;101422.35;1708683;82;25793;-77
2021/01/10 06:25:33;;;;;;;36.63;14.43;;;;;;;0.83;94.26;101424.17;1699636;82;27605;-75
2021/01/10 06:28:07;;;;;;;35.92;14.50;;;;;;;0.87;94.30;101424.65;1708816;82;25909;-75
2021/01/10 06:30:35;;;;;;;37.93;14.75;;;;;;;0.89;94.32;101417.20;1702801;82;26203;-74
2021/01/10 06:33:16;;;;;;;35.90;14.58;;;;;;;0.91;94.34;101419.41;1699974;82;25889;-75
2021/01/10 06:35:43;;;;;;;37.78;15.68;;;;;;;0.96;94.36;101419.02;1705870;82;26402;-74
2021/01/10 06:38:11;;;;;;;43.98;15.28;;;;;;;1.10;94.44;101423.52;1714739;82;27558;-73
2021/01/10 06:40:40;;;;;;;34.27;13.30;;;;;;;1.18;94.47;101428.42;1697010;82;25861;-75
2021/01/10 06:43:08;;;;;;;33.70;13.50;;;;;;;1.25;94.48;101426.27;1688779;82;26435;-74
2021/01/10 06:45:38;;;;;;;34.88;13.95;;;;;;;1.24;94.45;101422.75;1689109;82;26620;-73
2021/01/10 06:48:09;;;;;;;32.23;14.68;;;;;;;1.23;94.39;101427.58;1704291;82;25897;-74
2021/01/10 06:50:36;;;;;;;37.45;16.02;;;;;;;1.23;94.35;101434.19;1705496;82;27398;-74
2021/01/10 06:53:12;;;;;;;30.05;14.05;;;;;;;1.21;94.29;101433.72;1698931;82;25819;-75
2021/01/10 06:55:39;;;;;;;32.08;13.05;;;;;;;1.14;94.21;101435.87;1695945;82;25824;-74
2021/01/10 06:58:11;;;;;;;31.42;12.03;;;;;;;1.09;94.16;101433.63;1709318;82;26269;-75
2021/01/10 07:00:59;;;;;;;31.65;12.25;;;;;;;1.16;94.21;101436.77;1712493;82;25764;-76
2021/01/10 07:03:27;;;;;;;32.50;13.98;;;;;;;1.23;94.30;101439.47;1703684;82;28346;-75
2021/01/10 07:06:11;;;;;;;28.45;11.48;;;;;;;1.29;94.34;101433.34;1710008;82;26019;-76
2021/01/10 07:08:54;;;;;;;22.58;9.50;;;;;;;1.35;94.36;101438.67;1696154;82;25882;-77
2021/01/10 07:11:26;;;;;;;16.40;7.90;;;;;;;1.45;94.38;101445.78;1715234;82;26194;-75
2021/01/10 07:14:03;;;;;;;;;;;;;;;1.43;94.31;101447.97;1708651;82;25867;-77
2021/01/10 07:16:29;;;;;;;17.65;8.40;;;;;;;1.45;94.29;101448.86;1710256;82;27361;-75
2021/01/10 07:19:04;;;;;;;13.45;7.35;;;;;;;1.50;94.32;101451.98;1696890;82;26532;-78
2021/01/10 07:21:33;;;;;;;14.10;6.35;;;;;;;1.52;94.31;101454.63;1700311;82;25937;-76
2021/01/10 07:24:19;;;;;;;11.80;5.65;;;;;;;1.42;94.22;101453.69;1707271;82;26006;-76
2021/01/10 07:26:55;;;;;;;8.30;3.92;;;;;;;1.39;94.22;101452.34;1696501;82;25891;-76
2021/01/10 07:29:44;;;;;;;6.83;4.05;;;;;;;1.36;94.18;101449.68;1703076;82;27471;-76
2021/01/10 07:32:15;;;;;;;9.90;5.30;;;;;;;1.29;94.17;101450.51;1704578;82;25813;-77
2021/01/10 07:34:52;;;;;;;8.65;4.67;;;;;;;1.16;94.10;101448.65;1703479;82;25939;-77
2021/01/10 07:37:29;;;;;;;9.08;4.22;;;;;;;1.16;94.15;101453.92;1704702;82;26171;-77
2021/01/10 07:40:02;;;;;;;7.30;4.33;;;;;;;1.19;94.18;101457.48;1708627;82;25852;-75
2021/01/10 07:42:36;;;;;;;10.05;5.22;;;;;;;1.23;94.25;101456.63;1708195;82;27455;-76
2021/01/10 07:45:20;;;;;;;11.18;5.50;;;;;;;1.14;94.18;101471.08;1712684;82;25787;-76
2021/01/10 07:47:48;;;;;;;9.90;4.33;;;;;;;1.16;94.23;101469.77;1707899;82;25926;-76
2021/01/10 07:50:21;;;;;;;5.67;3.17;;;;;;;1.11;94.20;101468.84;1706576;82;26420;-77
2021/01/10 07:53:00;;;;;;;5.95;3.85;;;;;;;1.10;94.20;101471.04;1703359;82;25906;-78
2021/01/10 07:55:29;;;;;;;6.50;3.35;;;;;;;1.13;94.20;101473.70;1697482;82;28383;-77
2021/01/10 07:58:09;;;;;;;6.42;3.45;;;;;;;1.14;94.22;101472.83;1704914;82;25933;-77
2021/01/10 08:00:48;;;;;;;7.47;3.58;;;;;;;1.21;94.26;101468.05;1704134;82;25884;-79
2021/01/10 08:03:27;;;;;;;7.72;4.08;;;;;;;1.25;94.24;101469.41;1708451;82;25970;-78
2021/01/10 08:06:06;;;;;;;6.30;3.87;;;;;;;1.36;94.28;101465.53;1713144;82;25813;-78
2021/01/10 08:08:44;;;;;;;7.55;3.90;;;;;;;1.41;94.27;101470.84;1703438;82;28319;-77
2021/01/10 08:11:11;;;;;;;6.22;3.92;;;;;;;1.46;94.29;101468.68;1711626;82;25771;-80
2021/01/10 08:13:40;;;;;;;7.05;4.30;;;;;;;1.52;94.31;101475.33;1703232;82;25915;-79
2021/01/10 08:16:29;;;;;;;8.48;4.47;;;;;;;1.57;94.30;101480.20;1710237;82;26630;-79
2021/01/10 08:19:03;;;;;;;8.10;4.40;;;;;;;1.57;94.26;101485.93;1707811;82;26553;-77
2021/01/10 08:21:29;;;;;;;11.00;5.08;;;;;;;1.46;94.17;101492.45;1714456;82;27417;-78
2021/01/10 08:23:55;;;;;;;9.60;5.08;;;;;;;1.42;94.14;101493.30;1712151;82;25921;-81
2021/01/10 08:26:22;;;;;;;9.30;4.97;;;;;;;1.30;94.04;101496.73;1696555;82;26573;-81
2021/01/10 08:28:55;;;;;;;12.40;6.15;;;;;;;1.30;94.07;101501.14;1704308;82;25832;-80
2021/01/10 08:31:25;;;;;;;7.97;4.22;;;;;;;1.29;94.09;101502.00;1707294;82;25729;-78
2021/01/10 08:34:00;;;;;;;5.55;3.85;;;;;;;1.28;94.11;101498.92;1713493;82;27621;-78
2021/01/10 08:36:26;;;;;;;6.75;4.00;;;;;;;1.33;94.15;101510.41;1695240;82;25898;-78
2021/01/10 08:39:02;;;;;;;8.38;4.10;;;;;;;1.32;94.13;101512.59;1712630;82;25777;-78
2021/01/10 08:41:35;;;;;;;4.60;2.90;;;;;;;1.35;94.16;101515.70;1707232;82;25901;-77
2021/01/10 08:44:16;;;;;;;6.20;2.92;;;;;;;1.24;94.12;101520.45;1710381;82;25859;-77
2021/01/10 08:46:47;;;;;;;6.78;3.30;;;;;;;1.18;94.13;101518.20;1694832;82;26773;-75
2021/01/10 08:49:23;;;;;;;10.60;5.30;;;;;;;1.20;94.15;101516.45;1709185;82;26400;-78
2021/01/10 08:51:49;;;;;;;8.20;4.33;;;;;;;1.26;94.22;101518.71;1700444;82;25849;-76
2021/01/10 08:54:17;;;;;;;8.13;4.75;;;;;;;1.35;94.29;101517.91;1705128;82;26312;-77
2021/01/10 08:56:47;;;;;;;8.38;4.22;;;;;;;1.38;94.31;101519.25;1711501;82;25838;-77
2021/01/10 08:59:13;;;;;;;6.80;4.05;;;;;;;1.42;94.35;101522.36;1712439;82;28307;-77
2021/01/10 09:01:40;;;;;;;6.33;3.85;;;;;;;1.47;94.38;101522.40;1704791;82;25780;-78
2021/01/10 09:04:12;;;;;;;9.98;4.35;;;;;;;1.41;94.32;101518.39;1676943;82;25823;-77
2021/01/10 09:06:49;;;;;;;9.45;4.87;;;;;;;1.40;94.31;101524.11;1698324;82;25869;-78
2021/01/10 09:09:50;;;;;;;9.20;4.17;;;;;;;1.44;94.33;101528.98;1712703;82;25869;-77
2021/01/10 09:12:53;;;;;;;9.88;4.62;;;;;;;1.46;94.34;101530.77;1699683;82;28725;-77
2021/01/10 09:15:23;;;;;;;9.90;5.35;;;;;;;1.51;94.37;101525.08;1688557;83;25822;-76
2021/01/10 09:18:02;;;;;;;18.48;6.20;;;;;;;1.56;94.39;101524.67;1686053;83;26103;-76
2021/01/10 09:20:31;;;;;;;14.25;6.80;;;;;;;1.56;94.36;101526.00;1706835;82;25811;-77
2021/01/10 09:22:58;;;;;;;12.63;6.30;;;;;;;1.53;94.33;101520.69;1697446;82;25818;-77
2021/01/10 09:25:25;;;;;;;13.08;6.33;;;;;;;1.55;94.35;101520.27;1710403;82;25797;-75
2021/01/10 09:28:18;;;;;;;13.08;6.75;;;;;;;1.59;94.35;101519.41;1701621;82;26419;-78
2021/01/10 09:30:55;;;;;;;15.08;7.45;;;;;;;1.56;94.32;101523.35;1710741;82;25888;-74
2021/01/10 09:33:30;;;;;;;16.62;7.12;;;;;;;1.58;94.31;101524.25;1705588;82;25852;-78
2021/01/10 09:35:58;;;;;;;18.57;8.13;;;;;;;1.49;94.22;101529.90;1705006;82;26000;-78
2021/01/10 09:38:28;;;;;;;19.42;7.90;;;;;;;1.43;94.20;101525.45;1713580;82;28088;-75
2021/01/10 09:41:12;;;;;;;13.80;7.62;;;;;;;1.45;94.23;101527.67;1713018;82;25891;-78
2021/01/10 09:43:51;;;;;;;18.12;8.45;;;;;;;1.46;94.27;101526.80;1713370;82;26562;-76
2021/01/10 09:46:35;;;;;;;18.67;7.83;;;;;;;1.46;94.29;101525.91;1706932;82;25815;-75
2021/01/10 09:49:07;;;;;;;15.15;7.03;;;;;;;1.39;94.25;101530.70;1694002;82;25763;-74
2021/01/10 09:51:52;;;;;;;20.30;8.78;;;;;;;1.39;94.27;101533.34;1700458;82;27435;-75
2021/01/10 09:54:28;;;;;;;17.77;10.75;;;;;;;1.44;94.32;101527.66;1702689;82;26183;-73
2021/01/10 09:56:56;;;;;;;20.45;9.85;;;;;;;1.48;94.37;101525.05;1713760;82;25801;-75
2021/01/10 09:59:34;;;;;;;23.67;10.65;;;;;;;1.47;94.38;101529.00;1703701;82;26195;-75
2021/01/10 10:02:18;;;;;;;13.85;7.65;;;;;;;1.47;94.37;101532.53;1708848;82;26304;-77
2021/01/10 10:04:48;;;;;;;14.35;7.25;;;;;;;1.49;94.36;101536.50;1709723;82;28325;-76
2021/01/10 10:07:36;;;;;;;17.35;7.53;;;;;;;1.43;94.34;101531.17;1703030;82;25860;-76
2021/01/10 10:10:08;;;;;;;19.15;8.05;;;;;;;1.40;94.31;101529.39;1693371;82;25950;-75
2021/01/10 10:12:34;;;;;;;17.30;8.05;;;;;;;1.37;94.33;101526.72;1694992;82;25841;-75
2021/01/10 10:15:08;;;;;;;15.40;7.17;;;;;;;1.37;94.36;101528.05;1706118;82;26450;-78
2021/01/10 10:17:37;;;;;;;16.70;8.38;;;;;;;1.41;94.39;101521.91;1700486;82;28377;-79
2021/01/10 10:20:06;;;;;;;20.00;8.70;;;;;;;1.48;94.46;101530.34;1709625;82;26443;-78
2021/01/10 10:22:35;;;;;;;14.28;6.58;;;;;;;1.55;94.48;101522.91;1699203;82;26241;-76
2021/01/10 10:25:06;;;;;;;17.70;9.03;;;;;;;1.58;94.50;101524.25;1691302;82;26529;-78
2021/01/10 10:27:33;;;;;;;16.17;8.03;;;;;;;1.58;94.46;101520.28;1706937;82;25837;-79
2021/01/10 10:30:00;;;;;;;18.48;8.58;;;;;;;1.53;94.41;101519.37;1696774;82;27275;-78
2021/01/10 10:32:28;;;;;;;17.73;8.35;;;;;;;1.52;94.40;101516.28;1696839;82;25876;-77
2021/01/10 10:34:54;;;;;;;16.67;8.13;;;;;;;1.58;94.44;101516.32;1707871;82;25781;-77
2021/01/10 10:37:21;;;;;;;20.62;9.25;;;;;;;1.61;94.47;101518.10;1701391;82;25890;-77
2021/01/10 10:39:48;;;;;;;28.62;10.63;;;;;;;1.61;94.45;101516.78;1708798;82;25791;-77
2021/01/10 10:42:17;;;;;;;20.92;10.30;;;;;;;1.61;94.46;101516.34;1703491;82;28555;-77
2021/01/10 10:44:43;;;;;;;25.05;11.75;;;;;;;1.64;94.47;101516.80;1705611;82;25875;-77
2021/01/10 10:47:15;;;;;;;26.37;11.40;;;;;;;1.62;94.48;101517.23;1707534;82;25923;-77
2021/01/10 10:49:42;;;;;;;;;;;;;;;1.58;94.46;101508.39;1703346;82;25921;-77
2021/01/10 10:52:13;;;;;;;25.27;11.57;;;;;;;1.58;94.45;101504.44;1704190;82;25789;-77
2021/01/10 10:54:39;;;;;;;25.30;12.10;;;;;;;1.63;94.53;101509.75;1713912;82;27570;-77
2021/01/10 10:57:07;;;;;;;22.15;10.72;;;;;;;1.60;94.50;101502.69;1701907;82;25986;-77
2021/01/10 10:59:33;;;;;;;25.05;12.15;;;;;;;1.58;94.51;101507.08;1689700;82;25796;-76
2021/01/10 11:01:59;;;;;;;28.57;12.65;;;;;;;1.55;94.47;101500.45;1708774;82;25783;-77
2021/01/10 11:04:25;;;;;;;23.25;11.38;;;;;;;1.59;94.50;101499.59;1697185;82;25830;-77
2021/01/10 11:06:51;;;;;;;27.75;12.70;;;;;;;1.63;94.53;101504.03;1709842;82;27495;-75
2021/01/10 11:09:16;;;;;;;25.60;13.00;;;;;;;1.55;94.48;101502.20;1701489;82;25923;-80
2021/01/10 11:11:45;;;;;;;20.85;10.70;;;;;;;1.54;94.49;101498.68;1700995;82;25792;-79
2021/01/10 11:14:14;;;;;;;21.33;10.95;;;;;;;1.54;94.49;101497.36;1702519;82;25967;-79
2021/01/10 11:16:46;;;;;;;22.48;10.40;;;;;;;1.50;94.45;101499.53;1699580;82;25816;-80
2021/01/10 11:19:11;;;;;;;19.40;10.05;;;;;;;1.49;94.48;101507.01;1701307;82;28435;-79
2021/01/10 11:21:43;;;;;;;19.67;9.70;;;;;;;1.51;94.51;101501.30;1701363;82;26583;-80
2021/01/10 11:24:10;;;;;;;23.95;10.98;;;;;;;1.53;94.53;101499.55;1703588;82;26523;-78
2021/01/10 11:26:41;;;;;;;21.70;10.95;;;;;;;1.56;94.51;101500.90;1708684;82;25948;-80
2021/01/10 11:29:08;;;;;;;27.35;12.03;;;;;;;1.55;94.50;101501.77;1701373;82;25837;-79
2021/01/10 11:31:36;;;;;;;27.17;12.98;;;;;;;1.53;94.49;101502.62;1707974;82;27562;-78
2021/01/10 11:34:10;;;;;;;27.52;12.03;;;;;;;1.45;94.44;101495.09;1711002;81;25870;-79